sensor_id;sensor_type;location;lat;lon;timestamp;pressure;altitude;pressure_sealevel;temperature;humidity
11971;BME280;6045;42.682;23.294;2023-05-22T00:00:52;94401.16;;;15.47;78.97
11971;BME280;6045;42.682;23.294;2023-05-22T00:03:20;94401.16;;;15.57;79.15
11971;BME280;6045;42.682;23.294;2023-05-22T00:05:48;94407.13;;;15.69;78.93
11971;BME280;6045;42.682;23.294;2023-05-22T00:08:17;94411.47;;;15.75;79.77
11971;BME280;6045;42.682;23.294;2023-05-22T00:10:44;94407.69;;;15.76;79.03
11971;BME280;6045;42.682;23.294;2023-05-22T00:13:12;94409.59;;;15.76;78.74
11971;BME280;6045;42.682;23.294;2023-05-22T00:15:39;94400.94;;;15.79;78.35
11971;BME280;6045;42.682;23.294;2023-05-22T00:18:05;94402.56;;;15.80;78.74
11971;BME280;6045;42.682;23.294;2023-05-22T00:20:33;94406.63;;;15.87;78.45
11971;BME280;6045;42.682;23.294;2023-05-22T00:23:02;94400.16;;;15.93;78.52
11971;BME280;6045;42.682;23.294;2023-05-22T00:25:29;94401.78;;;15.94;78.17
11971;BME280;6045;42.682;23.294;2023-05-22T00:27:56;94399.09;;;15.89;77.77
11971;BME280;6045;42.682;23.294;2023-05-22T00:30:24;94401.75;;;15.79;77.69
11971;BME280;6045;42.682;23.294;2023-05-22T00:32:51;94398.53;;;15.77;77.78
11971;BME280;6045;42.682;23.294;2023-05-22T00:35:18;94400.69;;;15.75;78.22
11971;BME280;6045;42.682;23.294;2023-05-22T00:37:45;94411.72;;;15.79;77.95
11971;BME280;6045;42.682;23.294;2023-05-22T00:40:12;94401.75;;;15.79;78.08
11971;BME280;6045;42.682;23.294;2023-05-22T00:42:40;94407.66;;;15.71;78.44
11971;BME280;6045;42.682;23.294;2023-05-22T00:45:09;94406.88;;;15.70;78.07
11971;BME280;6045;42.682;23.294;2023-05-22T00:47:38;94411.44;;;15.70;78.64
11971;BME280;6045;42.682;23.294;2023-05-22T00:50:05;94413.00;;;15.51;77.94
11971;BME280;6045;42.682;23.294;2023-05-22T00:52:33;94407.84;;;15.39;78.79
11971;BME280;6045;42.682;23.294;2023-05-22T00:55:01;94403.75;;;15.32;79.13
11971;BME280;6045;42.682;23.294;2023-05-22T00:57:29;94407.81;;;15.34;79.01
11971;BME280;6045;42.682;23.294;2023-05-22T00:59:58;94408.31;;;15.31;79.83
11971;BME280;6045;42.682;23.294;2023-05-22T01:02:25;94402.44;;;15.34;79.56
11971;BME280;6045;42.682;23.294;2023-05-22T01:04:54;94401.63;;;15.39;78.96
11971;BME280;6045;42.682;23.294;2023-05-22T01:07:22;94402.50;;;15.44;79.67
11971;BME280;6045;42.682;23.294;2023-05-22T01:09:49;94398.19;;;15.48;79.65
11971;BME280;6045;42.682;23.294;2023-05-22T01:12:20;94401.97;;;15.47;79.48
11971;BME280;6045;42.682;23.294;2023-05-22T01:14:54;94402.22;;;15.46;79.10
11971;BME280;6045;42.682;23.294;2023-05-22T01:17:29;94399.81;;;15.44;79.42
11971;BME280;6045;42.682;23.294;2023-05-22T01:20:09;94408.69;;;15.50;79.28
11971;BME280;6045;42.682;23.294;2023-05-22T01:23:16;94399.53;;;15.51;79.69
11971;BME280;6045;42.682;23.294;2023-05-22T01:26:07;94400.09;;;15.53;78.97
11971;BME280;6045;42.682;23.294;2023-05-22T01:31:30;94399.22;;;15.42;79.76
11971;BME280;6045;42.682;23.294;2023-05-22T01:33:59;94397.84;;;15.35;80.31
11971;BME280;6045;42.682;23.294;2023-05-22T01:36:30;94397.06;;;15.39;80.06
11971;BME280;6045;42.682;23.294;2023-05-22T01:38:57;94402.16;;;15.41;80.89
11971;BME280;6045;42.682;23.294;2023-05-22T01:41:26;94395.19;;;15.40;79.61
11971;BME280;6045;42.682;23.294;2023-05-22T01:43:54;94391.94;;;15.38;79.60
11971;BME280;6045;42.682;23.294;2023-05-22T01:46:24;94396.25;;;15.39;79.68
11971;BME280;6045;42.682;23.294;2023-05-22T01:48:52;94394.63;;;15.43;79.65
11971;BME280;6045;42.682;23.294;2023-05-22T01:54:17;94392.00;;;15.48;80.16
11971;BME280;6045;42.682;23.294;2023-05-22T01:56:52;94394.44;;;15.49;79.34
11971;BME280;6045;42.682;23.294;2023-05-22T01:59:23;94391.16;;;15.42;79.06
11971;BME280;6045;42.682;23.294;2023-05-22T02:01:53;94390.31;;;15.37;79.53
11971;BME280;6045;42.682;23.294;2023-05-22T02:04:22;94390.31;;;15.37;80.22
11971;BME280;6045;42.682;23.294;2023-05-22T02:06:51;94387.63;;;15.37;79.83
11971;BME280;6045;42.682;23.294;2023-05-22T02:09:20;94387.03;;;15.25;80.42
11971;BME280;6045;42.682;23.294;2023-05-22T02:11:49;94385.97;;;15.21;80.35
11971;BME280;6045;42.682;23.294;2023-05-22T02:14:17;94389.47;;;15.21;80.89
11971;BME280;6045;42.682;23.294;2023-05-22T02:16:44;94391.59;;;15.14;80.51
11971;BME280;6045;42.682;23.294;2023-05-22T02:19:12;94400.69;;;15.03;81.14
11971;BME280;6045;42.682;23.294;2023-05-22T02:21:40;94397.44;;;15.01;81.61
11971;BME280;6045;42.682;23.294;2023-05-22T02:24:07;94398.19;;;14.91;81.76
11971;BME280;6045;42.682;23.294;2023-05-22T02:26:34;94387.69;;;14.85;81.92
11971;BME280;6045;42.682;23.294;2023-05-22T02:29:02;94394.69;;;14.86;82.60
11971;BME280;6045;42.682;23.294;2023-05-22T02:31:29;94397.13;;;14.87;82.35
11971;BME280;6045;42.682;23.294;2023-05-22T02:33:55;94396.53;;;14.80;82.72
11971;BME280;6045;42.682;23.294;2023-05-22T02:36:22;94387.38;;;14.76;82.60
11971;BME280;6045;42.682;23.294;2023-05-22T02:38:51;94395.38;;;14.66;82.57
11971;BME280;6045;42.682;23.294;2023-05-22T02:41:19;94387.78;;;14.58;82.99
11971;BME280;6045;42.682;23.294;2023-05-22T02:43:46;94389.94;;;14.56;83.79
11971;BME280;6045;42.682;23.294;2023-05-22T02:46:13;94391.28;;;14.59;84.60
11971;BME280;6045;42.682;23.294;2023-05-22T02:48:40;94389.16;;;14.61;84.48
11971;BME280;6045;42.682;23.294;2023-05-22T02:51:06;94388.91;;;14.62;84.64
11971;BME280;6045;42.682;23.294;2023-05-22T02:53:33;94381.91;;;14.61;84.55
11971;BME280;6045;42.682;23.294;2023-05-22T02:56:06;94390.47;;;14.58;83.14
11971;BME280;6045;42.682;23.294;2023-05-22T02:58:33;94388.84;;;14.52;83.26
11971;BME280;6045;42.682;23.294;2023-05-22T03:01:00;94389.84;;;14.46;83.60
11971;BME280;6045;42.682;23.294;2023-05-22T03:03:27;94384.47;;;14.46;84.20
11971;BME280;6045;42.682;23.294;2023-05-22T03:05:55;94388.00;;;14.47;84.43
11971;BME280;6045;42.682;23.294;2023-05-22T03:08:23;94391.22;;;14.49;84.67
11971;BME280;6045;42.682;23.294;2023-05-22T03:10:50;94385.34;;;14.52;84.40
11971;BME280;6045;42.682;23.294;2023-05-22T03:13:19;94390.97;;;14.50;84.13
11971;BME280;6045;42.682;23.294;2023-05-22T03:15:45;94394.22;;;14.52;84.42
11971;BME280;6045;42.682;23.294;2023-05-22T03:18:12;94388.34;;;14.55;84.39
11971;BME280;6045;42.682;23.294;2023-05-22T03:20:39;94394.75;;;14.54;84.41
11971;BME280;6045;42.682;23.294;2023-05-22T03:23:06;94397.41;;;14.49;84.64
11971;BME280;6045;42.682;23.294;2023-05-22T03:25:33;94393.63;;;14.45;85.01
11971;BME280;6045;42.682;23.294;2023-05-22T03:27:59;94391.47;;;14.42;83.80
11971;BME280;6045;42.682;23.294;2023-05-22T03:30:27;94387.63;;;14.33;84.27
11971;BME280;6045;42.682;23.294;2023-05-22T03:32:54;94391.84;;;14.24;84.41
11971;BME280;6045;42.682;23.294;2023-05-22T03:35:21;94389.69;;;14.26;85.26
11971;BME280;6045;42.682;23.294;2023-05-22T03:37:49;94395.34;;;14.24;85.62
11971;BME280;6045;42.682;23.294;2023-05-22T03:40:16;94392.13;;;14.22;85.83
11971;BME280;6045;42.682;23.294;2023-05-22T03:42:43;94394.50;;;14.19;85.25
11971;BME280;6045;42.682;23.294;2023-05-22T03:45:10;94388.06;;;14.25;85.61
11971;BME280;6045;42.682;23.294;2023-05-22T03:47:38;94389.16;;;14.24;84.92
11971;BME280;6045;42.682;23.294;2023-05-22T03:50:05;94396.72;;;14.27;85.35
11971;BME280;6045;42.682;23.294;2023-05-22T03:52:32;94397.84;;;14.31;85.51
11971;BME280;6045;42.682;23.294;2023-05-22T03:54:59;94393.31;;;14.36;85.26
11971;BME280;6045;42.682;23.294;2023-05-22T03:57:26;94389.59;;;14.43;86.33
11971;BME280;6045;42.682;23.294;2023-05-22T03:59:52;94399.59;;;14.52;86.13
11971;BME280;6045;42.682;23.294;2023-05-22T04:02:19;94400.47;;;14.63;86.06
11971;BME280;6045;42.682;23.294;2023-05-22T04:04:47;94397.59;;;14.79;87.57
11971;BME280;6045;42.682;23.294;2023-05-22T04:07:15;94400.16;;;15.73;100.00
11971;BME280;6045;42.682;23.294;2023-05-22T04:09:42;94398.75;;;15.55;88.95
11971;BME280;6045;42.682;23.294;2023-05-22T04:12:09;94404.44;;;15.69;85.76
11971;BME280;6045;42.682;23.294;2023-05-22T04:14:36;94399.31;;;15.67;83.90
11971;BME280;6045;42.682;23.294;2023-05-22T04:17:03;94406.59;;;15.67;83.37
11971;BME280;6045;42.682;23.294;2023-05-22T04:19:30;94399.03;;;15.59;82.23
11971;BME280;6045;42.682;23.294;2023-05-22T04:22:00;94394.72;;;15.58;82.62
11971;BME280;6045;42.682;23.294;2023-05-22T04:24:26;94400.91;;;15.58;82.67
11971;BME280;6045;42.682;23.294;2023-05-22T04:26:53;94393.38;;;15.65;82.17
11971;BME280;6045;42.682;23.294;2023-05-22T04:29:20;94410.91;;;15.63;80.31
11971;BME280;6045;42.682;23.294;2023-05-22T04:31:47;94400.13;;;15.68;81.59
11971;BME280;6045;42.682;23.294;2023-05-22T04:34:14;94407.38;;;15.62;80.01
11971;BME280;6045;42.682;23.294;2023-05-22T04:36:42;94404.69;;;15.62;79.14
11971;BME280;6045;42.682;23.294;2023-05-22T04:39:13;94410.34;;;15.61;78.89
11971;BME280;6045;42.682;23.294;2023-05-22T04:41:40;94408.75;;;15.65;81.08
11971;BME280;6045;42.682;23.294;2023-05-22T04:44:07;94409.59;;;15.76;81.12
11971;BME280;6045;42.682;23.294;2023-05-22T04:46:34;94403.38;;;15.85;80.83
11971;BME280;6045;42.682;23.294;2023-05-22T04:49:00;94410.41;;;16.06;79.73
11971;BME280;6045;42.682;23.294;2023-05-22T04:51:27;94418.25;;;16.18;77.30
11971;BME280;6045;42.682;23.294;2023-05-22T04:53:55;94417.19;;;16.29;76.63
11971;BME280;6045;42.682;23.294;2023-05-22T04:56:24;94420.66;;;16.39;75.97
11971;BME280;6045;42.682;23.294;2023-05-22T04:58:51;94415.59;;;16.53;75.95
11971;BME280;6045;42.682;23.294;2023-05-22T05:01:18;94410.97;;;16.64;77.26
11971;BME280;6045;42.682;23.294;2023-05-22T05:03:45;94411.50;;;16.76;75.17
11971;BME280;6045;42.682;23.294;2023-05-22T05:06:11;94412.56;;;16.90;75.66
11971;BME280;6045;42.682;23.294;2023-05-22T05:08:38;94419.53;;;17.01;77.13
11971;BME280;6045;42.682;23.294;2023-05-22T05:11:06;94421.59;;;17.29;77.42
11971;BME280;6045;42.682;23.294;2023-05-22T05:13:34;94421.25;;;17.61;77.80
11971;BME280;6045;42.682;23.294;2023-05-22T05:16:01;94418.50;;;17.71;75.16
11971;BME280;6045;42.682;23.294;2023-05-22T05:18:28;94426.47;;;17.91;73.80
11971;BME280;6045;42.682;23.294;2023-05-22T05:20:55;94427.13;;;18.17;74.64
11971;BME280;6045;42.682;23.294;2023-05-22T05:23:21;94425.94;;;18.28;72.82
11971;BME280;6045;42.682;23.294;2023-05-22T05:25:48;94430.47;;;18.37;70.07
11971;BME280;6045;42.682;23.294;2023-05-22T05:28:15;94421.97;;;18.54;74.75
11971;BME280;6045;42.682;23.294;2023-05-22T05:30:43;94420.81;;;18.65;70.19
11971;BME280;6045;42.682;23.294;2023-05-22T05:33:10;94430.03;;;18.64;70.86
11971;BME280;6045;42.682;23.294;2023-05-22T05:35:37;94428.22;;;18.83;68.03
11971;BME280;6045;42.682;23.294;2023-05-22T05:38:03;94431.13;;;18.92;67.59
11971;BME280;6045;42.682;23.294;2023-05-22T05:40:30;94429.28;;;19.11;68.61
11971;BME280;6045;42.682;23.294;2023-05-22T05:42:57;94439.44;;;19.00;69.10
11971;BME280;6045;42.682;23.294;2023-05-22T05:45:24;94432.56;;;19.08;69.41
11971;BME280;6045;42.682;23.294;2023-05-22T05:47:53;94433.69;;;19.31;68.38
11971;BME280;6045;42.682;23.294;2023-05-22T05:50:19;94438.44;;;19.44;67.23
11971;BME280;6045;42.682;23.294;2023-05-22T05:52:46;94432.25;;;19.62;66.19
11971;BME280;6045;42.682;23.294;2023-05-22T05:55:13;94426.44;;;19.73;66.36
11971;BME280;6045;42.682;23.294;2023-05-22T05:57:40;94432.38;;;19.94;66.02
11971;BME280;6045;42.682;23.294;2023-05-22T06:00:08;94436.88;;;20.04;64.22
11971;BME280;6045;42.682;23.294;2023-05-22T06:02:36;94433.81;;;20.29;62.95
11971;BME280;6045;42.682;23.294;2023-05-22T06:05:05;94430.19;;;20.52;61.88
11971;BME280;6045;42.682;23.294;2023-05-22T06:07:33;94427.91;;;20.59;68.00
11971;BME280;6045;42.682;23.294;2023-05-22T06:10:03;94434.41;;;20.77;60.72
11971;BME280;6045;42.682;23.294;2023-05-22T06:12:29;94439.06;;;20.90;61.70
11971;BME280;6045;42.682;23.294;2023-05-22T06:14:56;94437.47;;;20.89;58.12
11971;BME280;6045;42.682;23.294;2023-05-22T06:17:23;94428.22;;;21.03;59.73
11971;BME280;6045;42.682;23.294;2023-05-22T06:19:50;94430.78;;;20.81;59.99
11971;BME280;6045;42.682;23.294;2023-05-22T06:22:18;94432.50;;;21.09;58.68
11971;BME280;6045;42.682;23.294;2023-05-22T06:24:45;94430.59;;;21.10;59.73
11971;BME280;6045;42.682;23.294;2023-05-22T06:27:12;94438.13;;;21.13;56.01
11971;BME280;6045;42.682;23.294;2023-05-22T06:29:39;94430.69;;;21.05;55.33
11971;BME280;6045;42.682;23.294;2023-05-22T06:32:06;94431.56;;;21.00;55.23
11971;BME280;6045;42.682;23.294;2023-05-22T06:34:33;94431.00;;;20.85;54.54
11971;BME280;6045;42.682;23.294;2023-05-22T06:37:00;94428.97;;;20.77;57.50
11971;BME280;6045;42.682;23.294;2023-05-22T06:39:29;94426.97;;;20.82;53.57
11971;BME280;6045;42.682;23.294;2023-05-22T06:41:56;94433.75;;;20.98;55.79
11971;BME280;6045;42.682;23.294;2023-05-22T06:44:22;94430.59;;;21.10;56.19
11971;BME280;6045;42.682;23.294;2023-05-22T06:46:50;94426.59;;;21.35;53.24
11971;BME280;6045;42.682;23.294;2023-05-22T06:49:16;94431.72;;;21.63;50.58
11971;BME280;6045;42.682;23.294;2023-05-22T06:51:44;94424.47;;;22.00;53.15
11971;BME280;6045;42.682;23.294;2023-05-22T06:54:11;94431.63;;;22.31;49.98
11971;BME280;6045;42.682;23.294;2023-05-22T06:56:39;94438.44;;;22.42;48.35
11971;BME280;6045;42.682;23.294;2023-05-22T06:59:06;94430.16;;;22.12;49.04
11971;BME280;6045;42.682;23.294;2023-05-22T07:01:33;94426.25;;;22.18;48.69
11971;BME280;6045;42.682;23.294;2023-05-22T07:04:00;94433.75;;;22.70;48.48
11971;BME280;6045;42.682;23.294;2023-05-22T07:06:29;94429.81;;;23.07;49.11
11971;BME280;6045;42.682;23.294;2023-05-22T07:08:58;94435.06;;;23.26;49.86
11971;BME280;6045;42.682;23.294;2023-05-22T07:11:25;94432.75;;;23.41;48.91
11971;BME280;6045;42.682;23.294;2023-05-22T07:13:53;94436.38;;;23.67;53.53
11971;BME280;6045;42.682;23.294;2023-05-22T07:16:21;94422.31;;;23.83;51.76
11971;BME280;6045;42.682;23.294;2023-05-22T07:18:48;94425.66;;;23.79;52.46
11971;BME280;6045;42.682;23.294;2023-05-22T07:21:14;94427.91;;;23.69;52.22
11971;BME280;6045;42.682;23.294;2023-05-22T07:23:41;94431.94;;;23.80;51.43
11971;BME280;6045;42.682;23.294;2023-05-22T07:26:08;94434.94;;;23.70;48.67
11971;BME280;6045;42.682;23.294;2023-05-22T07:28:35;94432.38;;;23.65;50.40
11971;BME280;6045;42.682;23.294;2023-05-22T07:31:03;94433.53;;;23.72;50.37
11971;BME280;6045;42.682;23.294;2023-05-22T07:33:29;94428.88;;;24.21;49.82
11971;BME280;6045;42.682;23.294;2023-05-22T07:35:56;94427.09;;;24.33;47.49
11971;BME280;6045;42.682;23.294;2023-05-22T07:38:23;94419.38;;;24.53;45.88
11971;BME280;6045;42.682;23.294;2023-05-22T07:40:50;94412.78;;;24.62;45.96
11971;BME280;6045;42.682;23.294;2023-05-22T07:43:16;94412.47;;;24.81;42.63
11971;BME280;6045;42.682;23.294;2023-05-22T07:45:43;94421.91;;;25.26;43.00
11971;BME280;6045;42.682;23.294;2023-05-22T07:48:11;94429.91;;;25.40;43.26
11971;BME280;6045;42.682;23.294;2023-05-22T07:50:38;94413.69;;;25.72;40.01
11971;BME280;6045;42.682;23.294;2023-05-22T07:53:09;94416.53;;;25.55;40.37
11971;BME280;6045;42.682;23.294;2023-05-22T07:55:35;94405.47;;;25.26;40.63
11971;BME280;6045;42.682;23.294;2023-05-22T07:58:03;94411.59;;;25.23;42.81
11971;BME280;6045;42.682;23.294;2023-05-22T08:00:30;94419.31;;;25.21;39.52
11971;BME280;6045;42.682;23.294;2023-05-22T08:02:56;94412.47;;;24.98;41.63
11971;BME280;6045;42.682;23.294;2023-05-22T08:05:25;94409.53;;;25.20;42.66
11971;BME280;6045;42.682;23.294;2023-05-22T08:07:51;94420.75;;;25.36;43.42
11971;BME280;6045;42.682;23.294;2023-05-22T08:10:18;94407.53;;;25.46;41.13
11971;BME280;6045;42.682;23.294;2023-05-22T08:12:45;94419.25;;;25.55;38.80
11971;BME280;6045;42.682;23.294;2023-05-22T08:15:12;94414.94;;;25.46;39.20
11971;BME280;6045;42.682;23.294;2023-05-22T08:17:39;94413.16;;;25.41;39.21
11971;BME280;6045;42.682;23.294;2023-05-22T08:20:07;94415.09;;;25.49;38.30
11971;BME280;6045;42.682;23.294;2023-05-22T08:22:37;94415.19;;;25.61;37.26
11971;BME280;6045;42.682;23.294;2023-05-22T08:25:04;94408.44;;;25.59;37.59
11971;BME280;6045;42.682;23.294;2023-05-22T08:27:31;94422.25;;;25.71;39.04
11971;BME280;6045;42.682;23.294;2023-05-22T08:29:58;94413.91;;;25.97;35.53
11971;BME280;6045;42.682;23.294;2023-05-22T08:32:25;94414.84;;;26.01;36.05
11971;BME280;6045;42.682;23.294;2023-05-22T08:34:52;94418.25;;;26.27;35.19
11971;BME280;6045;42.682;23.294;2023-05-22T08:37:18;94417.88;;;26.37;36.08
11971;BME280;6045;42.682;23.294;2023-05-22T08:39:47;94412.66;;;26.23;37.30
11971;BME280;6045;42.682;23.294;2023-05-22T08:42:14;94410.25;;;25.84;36.79
11971;BME280;6045;42.682;23.294;2023-05-22T08:44:41;94406.91;;;25.78;35.01
11971;BME280;6045;42.682;23.294;2023-05-22T08:47:08;94402.19;;;25.88;36.13
11971;BME280;6045;42.682;23.294;2023-05-22T08:49:37;94395.38;;;26.23;37.15
11971;BME280;6045;42.682;23.294;2023-05-22T08:52:09;94406.28;;;26.52;35.90
11971;BME280;6045;42.682;23.294;2023-05-22T08:54:42;94412.97;;;25.84;33.28
11971;BME280;6045;42.682;23.294;2023-05-22T08:57:13;94410.88;;;25.52;35.26
11971;BME280;6045;42.682;23.294;2023-05-22T08:59:40;94408.66;;;25.83;35.64
11971;BME280;6045;42.682;23.294;2023-05-22T09:02:07;94407.06;;;26.03;35.25
11971;BME280;6045;42.682;23.294;2023-05-22T09:04:35;94394.78;;;26.38;36.25
11971;BME280;6045;42.682;23.294;2023-05-22T09:07:02;94399.47;;;26.58;34.58
11971;BME280;6045;42.682;23.294;2023-05-22T09:09:30;94398.50;;;26.13;31.94
11971;BME280;6045;42.682;23.294;2023-05-22T09:11:58;94395.91;;;25.49;32.67
11971;BME280;6045;42.682;23.294;2023-05-22T09:14:26;94399.41;;;25.58;33.14
11971;BME280;6045;42.682;23.294;2023-05-22T09:16:53;94401.25;;;25.37;31.51
11971;BME280;6045;42.682;23.294;2023-05-22T09:19:20;94390.44;;;24.86;32.16
11971;BME280;6045;42.682;23.294;2023-05-22T09:21:47;94396.22;;;24.76;34.71
11971;BME280;6045;42.682;23.294;2023-05-22T09:24:15;94388.84;;;24.68;33.96
11971;BME280;6045;42.682;23.294;2023-05-22T09:26:42;94391.91;;;24.49;34.74
11971;BME280;6045;42.682;23.294;2023-05-22T09:29:09;94401.06;;;24.53;34.74
11971;BME280;6045;42.682;23.294;2023-05-22T09:31:43;94399.63;;;24.73;34.58
11971;BME280;6045;42.682;23.294;2023-05-22T09:34:10;94396.38;;;24.88;34.45
11971;BME280;6045;42.682;23.294;2023-05-22T09:36:40;94394.28;;;24.85;37.54
11971;BME280;6045;42.682;23.294;2023-05-22T09:39:07;94392.53;;;24.89;35.93
11971;BME280;6045;42.682;23.294;2023-05-22T09:41:35;94396.06;;;24.81;38.16
11971;BME280;6045;42.682;23.294;2023-05-22T09:44:10;94401.06;;;24.96;38.44
11971;BME280;6045;42.682;23.294;2023-05-22T09:46:39;94403.91;;;25.17;37.78
11971;BME280;6045;42.682;23.294;2023-05-22T09:49:07;94384.31;;;25.06;39.78
11971;BME280;6045;42.682;23.294;2023-05-22T09:51:36;94398.47;;;24.91;39.76
11971;BME280;6045;42.682;23.294;2023-05-22T09:54:06;94399.47;;;24.43;39.01
11971;BME280;6045;42.682;23.294;2023-05-22T09:56:35;94388.44;;;23.92;40.19
11971;BME280;6045;42.682;23.294;2023-05-22T09:59:02;94396.25;;;23.59;43.99
11971;BME280;6045;42.682;23.294;2023-05-22T10:01:30;94400.28;;;23.31;42.93
11971;BME280;6045;42.682;23.294;2023-05-22T10:03:59;94399.38;;;23.13;42.58
11971;BME280;6045;42.682;23.294;2023-05-22T10:06:29;94403.50;;;23.02;42.75
11971;BME280;6045;42.682;23.294;2023-05-22T10:09:01;94400.78;;;22.80;44.73
11971;BME280;6045;42.682;23.294;2023-05-22T10:11:30;94404.19;;;22.86;44.81
11971;BME280;6045;42.682;23.294;2023-05-22T10:13:58;94412.81;;;22.79;44.63
11971;BME280;6045;42.682;23.294;2023-05-22T10:16:26;94407.81;;;22.59;46.94
11971;BME280;6045;42.682;23.294;2023-05-22T10:18:53;94405.91;;;22.37;44.66
11971;BME280;6045;42.682;23.294;2023-05-22T10:21:21;94401.44;;;22.41;45.38
11971;BME280;6045;42.682;23.294;2023-05-22T10:23:50;94392.84;;;22.48;45.63
11971;BME280;6045;42.682;23.294;2023-05-22T10:26:18;94400.06;;;22.30;45.33
11971;BME280;6045;42.682;23.294;2023-05-22T10:28:48;94402.34;;;22.15;45.24
11971;BME280;6045;42.682;23.294;2023-05-22T10:31:25;94401.56;;;22.01;46.00
11971;BME280;6045;42.682;23.294;2023-05-22T10:33:57;94401.09;;;21.71;47.09
11971;BME280;6045;42.682;23.294;2023-05-22T10:36:32;94408.03;;;21.77;49.58
11971;BME280;6045;42.682;23.294;2023-05-22T10:39:14;94421.44;;;21.33;49.04
11971;BME280;6045;42.682;23.294;2023-05-22T10:41:48;94420.72;;;21.14;49.06
11971;BME280;6045;42.682;23.294;2023-05-22T10:44:16;94436.06;;;20.91;50.58
11971;BME280;6045;42.682;23.294;2023-05-22T10:46:47;94446.97;;;20.54;53.04
11971;BME280;6045;42.682;23.294;2023-05-22T10:49:19;94453.53;;;20.16;58.13
11971;BME280;6045;42.682;23.294;2023-05-22T10:51:47;94436.78;;;19.90;58.32
11971;BME280;6045;42.682;23.294;2023-05-22T10:54:15;94422.84;;;19.78;64.56
11971;BME280;6045;42.682;23.294;2023-05-22T10:56:42;94436.63;;;20.00;66.60
11971;BME280;6045;42.682;23.294;2023-05-22T10:59:09;94426.25;;;20.26;66.42
11971;BME280;6045;42.682;23.294;2023-05-22T11:01:36;94412.53;;;20.36;67.55
11971;BME280;6045;42.682;23.294;2023-05-22T11:04:09;94413.38;;;20.50;68.66
11971;BME280;6045;42.682;23.294;2023-05-22T11:06:37;94408.22;;;20.67;69.92
11971;BME280;6045;42.682;23.294;2023-05-22T11:09:35;94408.00;;;20.96;71.19
11971;BME280;6045;42.682;23.294;2023-05-22T11:12:13;94403.59;;;21.27;70.59
11971;BME280;6045;42.682;23.294;2023-05-22T11:14:41;94404.13;;;21.56;68.58
11971;BME280;6045;42.682;23.294;2023-05-22T11:17:15;94395.13;;;21.69;72.17
11971;BME280;6045;42.682;23.294;2023-05-22T11:19:43;94393.16;;;21.61;63.59
11971;BME280;6045;42.682;23.294;2023-05-22T11:22:10;94387.06;;;21.78;64.53
11971;BME280;6045;42.682;23.294;2023-05-22T11:24:39;94392.00;;;21.62;63.54
11971;BME280;6045;42.682;23.294;2023-05-22T11:27:06;94393.44;;;21.19;60.63
11971;BME280;6045;42.682;23.294;2023-05-22T11:29:33;94392.13;;;20.71;61.68
11971;BME280;6045;42.682;23.294;2023-05-22T11:32:02;94400.22;;;20.57;63.91
11971;BME280;6045;42.682;23.294;2023-05-22T11:34:28;94442.75;;;20.29;67.01
11971;BME280;6045;42.682;23.294;2023-05-22T11:36:58;94456.91;;;19.42;65.58
11971;BME280;6045;42.682;23.294;2023-05-22T11:39:25;94464.97;;;18.61;71.44
11971;BME280;6045;42.682;23.294;2023-05-22T11:41:53;94460.31;;;17.84;71.70
11971;BME280;6045;42.682;23.294;2023-05-22T11:44:20;94455.94;;;17.24;72.68
11971;BME280;6045;42.682;23.294;2023-05-22T11:46:47;94464.88;;;17.19;74.15
11971;BME280;6045;42.682;23.294;2023-05-22T11:49:14;94461.13;;;17.05;77.29
11971;BME280;6045;42.682;23.294;2023-05-22T11:51:41;94468.47;;;16.74;76.54
11971;BME280;6045;42.682;23.294;2023-05-22T11:54:09;94457.91;;;16.88;79.46
11971;BME280;6045;42.682;23.294;2023-05-22T11:56:36;94462.78;;;16.81;76.55
11971;BME280;6045;42.682;23.294;2023-05-22T11:59:04;94461.38;;;16.98;77.22
11971;BME280;6045;42.682;23.294;2023-05-22T12:01:31;94457.84;;;17.08;74.61
11971;BME280;6045;42.682;23.294;2023-05-22T12:03:58;94456.78;;;17.09;74.41
11971;BME280;6045;42.682;23.294;2023-05-22T12:06:24;94451.06;;;17.26;76.48
11971;BME280;6045;42.682;23.294;2023-05-22T12:08:51;94453.38;;;17.67;75.50
11971;BME280;6045;42.682;23.294;2023-05-22T12:11:18;94456.44;;;18.00;72.01
11971;BME280;6045;42.682;23.294;2023-05-22T12:13:45;94453.03;;;17.79;71.38
11971;BME280;6045;42.682;23.294;2023-05-22T12:16:18;94449.94;;;17.42;72.22
11971;BME280;6045;42.682;23.294;2023-05-22T12:18:46;94450.56;;;17.08;73.67
11971;BME280;6045;42.682;23.294;2023-05-22T12:21:12;94446.00;;;17.04;76.31
11971;BME280;6045;42.682;23.294;2023-05-22T12:23:47;94438.72;;;16.99;77.07
11971;BME280;6045;42.682;23.294;2023-05-22T12:26:14;94437.88;;;17.19;76.74
11971;BME280;6045;42.682;23.294;2023-05-22T12:28:41;94430.75;;;17.38;75.84
11971;BME280;6045;42.682;23.294;2023-05-22T12:31:08;94441.53;;;17.48;76.26
11971;BME280;6045;42.682;23.294;2023-05-22T12:33:38;94432.38;;;17.44;73.86
11971;BME280;6045;42.682;23.294;2023-05-22T12:36:06;94429.56;;;17.69;77.81
11971;BME280;6045;42.682;23.294;2023-05-22T12:38:33;94422.88;;;18.06;75.41
11971;BME280;6045;42.682;23.294;2023-05-22T12:41:02;94423.16;;;18.38;72.14
11971;BME280;6045;42.682;23.294;2023-05-22T12:43:30;94424.09;;;18.62;70.05
11971;BME280;6045;42.682;23.294;2023-05-22T12:46:15;94426.22;;;18.94;74.05
11971;BME280;6045;42.682;23.294;2023-05-22T12:48:43;94428.63;;;19.24;71.01
11971;BME280;6045;42.682;23.294;2023-05-22T12:51:10;94425.47;;;19.41;70.02
11971;BME280;6045;42.682;23.294;2023-05-22T12:53:37;94423.16;;;19.53;74.83
11971;BME280;6045;42.682;23.294;2023-05-22T12:56:04;94422.19;;;19.44;70.24
11971;BME280;6045;42.682;23.294;2023-05-22T12:58:31;94422.84;;;19.36;71.10
11971;BME280;6045;42.682;23.294;2023-05-22T13:00:58;94424.00;;;19.48;72.52
11971;BME280;6045;42.682;23.294;2023-05-22T13:03:25;94432.78;;;19.64;71.43
11971;BME280;6045;42.682;23.294;2023-05-22T13:05:53;94426.13;;;19.75;72.92
11971;BME280;6045;42.682;23.294;2023-05-22T13:08:20;94426.91;;;19.99;72.68
11971;BME280;6045;42.682;23.294;2023-05-22T13:10:47;94419.41;;;20.28;74.61